createdAt,value
2018-09-05T00:02:01.335Z,19.46
2018-09-05T00:04:31.638Z,19.48
2018-09-05T00:07:02.147Z,19.47
2018-09-05T00:09:32.618Z,19.43
2018-09-05T00:12:02.955Z,19.42
2018-09-05T00:15:40.856Z,19.45
2018-09-05T00:18:11.232Z,19.40
2018-09-05T00:20:41.519Z,19.37
2018-09-05T00:23:11.766Z,19.37
2018-09-05T00:25:42.148Z,19.38
2018-09-05T00:28:12.414Z,19.32
2018-09-05T00:30:42.683Z,19.31
2018-09-05T00:33:12.987Z,19.27
2018-09-05T00:35:43.415Z,19.30
2018-09-05T00:38:13.616Z,19.32
2018-09-05T00:40:43.985Z,19.33
2018-09-05T00:43:14.392Z,19.36
2018-09-05T00:45:44.834Z,19.36
2018-09-05T00:48:21.866Z,19.38
2018-09-05T00:50:52.226Z,19.40
2018-09-05T00:53:22.689Z,19.42
2018-09-05T00:55:53.154Z,19.43
2018-09-05T00:58:23.359Z,19.42
2018-09-05T01:00:53.876Z,19.45
2018-09-05T01:03:24.378Z,19.45
2018-09-05T01:05:54.679Z,19.46
2018-09-05T01:08:31.143Z,19.48
2018-09-05T01:11:01.476Z,19.46
2018-09-05T01:13:31.851Z,19.45
2018-09-05T01:16:02.324Z,19.42
2018-09-05T01:18:32.848Z,19.39
2018-09-05T01:21:03.329Z,19.36
2018-09-05T01:23:33.645Z,19.36
2018-09-05T01:26:04.159Z,19.32
2018-09-05T01:28:34.495Z,19.30
2018-09-05T01:31:04.792Z,19.29
2018-09-05T01:33:37.243Z,19.27
2018-09-05T01:36:13.322Z,19.29
2018-09-05T01:38:44.086Z,19.31
2018-09-05T01:41:15.202Z,19.29
2018-09-05T01:43:45.531Z,19.29
2018-09-05T01:46:15.747Z,19.26
2018-09-05T01:48:46.016Z,19.28
2018-09-05T01:51:16.342Z,19.28
2018-09-05T01:53:47.083Z,19.28
2018-09-05T01:56:17.101Z,19.26
2018-09-05T01:58:47.334Z,19.25
2018-09-05T02:01:17.526Z,19.25
2018-09-05T02:03:47.949Z,19.28
2018-09-05T02:06:18.040Z,19.27
2018-09-05T02:08:48.466Z,19.24
2018-09-05T02:11:19.475Z,19.24
2018-09-05T02:13:49.883Z,19.27
2018-09-05T02:16:20.562Z,19.27
2018-09-05T02:18:50.924Z,19.32
2018-09-05T02:21:21.403Z,19.31
2018-09-05T02:23:51.831Z,19.31
2018-09-05T02:26:22.165Z,19.32
2018-09-05T02:28:52.783Z,19.34
2018-09-05T02:31:23.150Z,19.36
2018-09-05T02:33:53.622Z,19.35
2018-09-05T02:36:23.880Z,19.33
2018-09-05T02:38:54.289Z,19.35
2018-09-05T02:41:24.758Z,19.37
2018-09-05T02:43:59.990Z,19.36
2018-09-05T02:46:30.299Z,19.36
2018-09-05T02:49:01.728Z,19.36
2018-09-05T02:51:32.183Z,19.36
2018-09-05T02:54:02.572Z,19.33
2018-09-05T02:56:32.882Z,19.32
2018-09-05T02:59:03.176Z,19.33
2018-09-05T03:01:33.611Z,19.31
2018-09-05T03:04:03.896Z,19.33
2018-09-05T03:06:34.255Z,19.27
2018-09-05T03:09:05.273Z,19.26
2018-09-05T03:11:35.553Z,19.28
2018-09-05T03:14:05.687Z,19.27
2018-09-05T03:16:36.242Z,19.31
2018-09-05T03:19:06.555Z,19.30
2018-09-05T03:21:37.001Z,19.28
2018-09-05T03:24:07.439Z,19.25
2018-09-05T03:26:37.984Z,19.21
2018-09-05T03:29:08.259Z,19.24
2018-09-05T03:31:38.553Z,19.27
2018-09-05T03:34:09.017Z,19.24
2018-09-05T03:36:39.445Z,19.24
2018-09-05T03:46:11.323Z,19.12
2018-09-05T03:48:41.645Z,19.15
2018-09-05T03:51:12.004Z,19.17
2018-09-05T03:53:42.477Z,19.18
2018-09-05T03:56:12.962Z,19.20
2018-09-05T03:58:43.574Z,19.22
2018-09-05T04:01:13.978Z,19.20
2018-09-05T04:03:44.359Z,19.22
2018-09-05T04:06:22.125Z,19.18
2018-09-05T04:08:53.665Z,19.20
2018-09-05T04:11:24.008Z,19.23
2018-09-05T04:13:54.179Z,19.24
2018-09-05T04:16:24.267Z,19.21
2018-09-05T04:18:54.478Z,19.24
2018-09-05T04:21:24.886Z,19.20
2018-09-05T04:23:55.473Z,19.17
2018-09-05T04:26:25.752Z,19.15
2018-09-05T04:28:56.127Z,19.16
2018-09-05T04:31:26.377Z,19.19
2018-09-05T04:33:56.707Z,19.23
2018-09-05T04:36:27.040Z,19.26
2018-09-05T04:38:58.011Z,19.29
2018-09-05T04:41:28.508Z,19.28
2018-09-05T04:43:59.074Z,19.29
2018-09-05T04:46:30.000Z,19.28
2018-09-05T04:49:00.494Z,19.30
2018-09-05T04:51:31.214Z,19.29
2018-09-05T04:54:01.475Z,19.26
2018-09-05T04:56:31.863Z,19.27
2018-09-05T04:59:02.212Z,19.27
2018-09-05T05:01:32.671Z,19.32
2018-09-05T05:04:03.287Z,19.33
2018-09-05T05:06:33.620Z,19.32
2018-09-05T05:09:05.176Z,19.33
2018-09-05T05:11:35.466Z,19.35
2018-09-05T05:14:06.119Z,19.36
2018-09-05T05:16:36.413Z,19.44
2018-09-05T05:19:07.595Z,19.49
2018-09-05T05:21:38.230Z,19.56
2018-09-05T05:24:08.533Z,19.58
2018-09-05T05:26:38.983Z,19.69
2018-09-05T05:29:09.208Z,19.73
2018-09-05T05:31:39.774Z,19.79
2018-09-05T05:34:10.091Z,19.83
2018-09-05T05:36:40.351Z,19.89
2018-09-05T05:39:12.023Z,19.93
2018-09-05T05:41:42.391Z,19.92
2018-09-05T05:44:13.610Z,19.96
2018-09-05T05:46:44.066Z,19.97
2018-09-05T05:49:14.427Z,19.97
2018-09-05T05:51:44.890Z,19.95
2018-09-05T05:54:15.332Z,19.95
2018-09-05T05:56:45.494Z,19.94
2018-09-05T05:59:15.717Z,20.01
2018-09-05T06:01:46.047Z,20.09
2018-09-05T06:04:16.301Z,20.15
2018-09-05T06:06:47.374Z,20.28
2018-09-05T06:09:17.729Z,20.31
2018-09-05T06:11:48.098Z,20.41
2018-09-05T06:14:18.361Z,20.53
2018-09-05T06:16:48.744Z,20.54
2018-09-05T06:19:19.146Z,20.60
2018-09-05T06:21:52.185Z,20.68
2018-09-05T06:24:22.520Z,20.77
2018-09-05T06:26:52.791Z,20.80
2018-09-05T06:29:23.278Z,20.79
2018-09-05T06:31:53.483Z,20.75
2018-09-05T06:34:23.901Z,20.75
2018-09-05T06:36:54.311Z,20.77
2018-09-05T06:39:24.537Z,20.64
2018-09-05T06:41:54.854Z,20.66
2018-09-05T06:44:25.253Z,20.65
2018-09-05T06:46:55.671Z,20.55
2018-09-05T06:49:26.144Z,20.39
2018-09-05T06:51:56.467Z,20.43
2018-09-05T06:54:26.821Z,20.50
2018-09-05T06:56:57.243Z,20.59
2018-09-05T06:59:27.680Z,20.53
2018-09-05T07:01:58.161Z,20.47
2018-09-05T07:04:28.487Z,20.54
2018-09-05T07:06:58.748Z,20.52
2018-09-05T07:09:29.152Z,20.48
2018-09-05T07:11:59.747Z,20.59
2018-09-05T07:14:30.041Z,20.59
2018-09-05T07:17:00.486Z,20.60
2018-09-05T07:19:30.840Z,20.68
2018-09-05T07:22:01.352Z,20.80
2018-09-05T07:24:31.711Z,21.00
2018-09-05T07:27:02.171Z,21.17
2018-09-05T07:29:32.543Z,21.26
2018-09-05T07:32:02.927Z,21.35
2018-09-05T07:34:33.317Z,21.47
2018-09-05T07:37:03.535Z,21.49
2018-09-05T07:39:35.100Z,21.53
2018-09-05T07:42:06.275Z,21.62
2018-09-05T07:44:36.619Z,21.61
2018-09-05T07:47:07.071Z,21.64
2018-09-05T07:49:38.236Z,21.81
2018-09-05T07:52:08.723Z,21.94
2018-09-05T07:54:39.784Z,22.05
2018-09-05T07:57:10.259Z,22.16
2018-09-05T07:59:40.622Z,22.30
2018-09-05T08:02:11.130Z,22.32
2018-09-05T08:04:41.501Z,22.34
2018-09-05T08:07:11.955Z,22.44
2018-09-05T08:09:42.242Z,22.65
2018-09-05T08:12:12.640Z,22.74
2018-09-05T08:14:42.975Z,22.77
2018-09-05T08:17:13.899Z,23.01
2018-09-05T08:19:44.384Z,23.10
2018-09-05T08:22:14.812Z,23.25
2018-09-05T08:24:46.224Z,23.32
2018-09-05T08:27:21.152Z,23.45
2018-09-05T08:29:54.167Z,23.51
2018-09-05T08:32:24.453Z,23.65
2018-09-05T08:34:55.085Z,23.62
2018-09-05T08:37:25.660Z,23.74
2018-09-05T08:39:56.041Z,23.71
2018-09-05T08:42:26.554Z,23.90
2018-09-05T08:44:56.957Z,23.90
2018-09-05T08:47:27.231Z,24.00
2018-09-05T08:49:57.696Z,24.09
2018-09-05T08:52:28.262Z,24.20
2018-09-05T08:54:58.496Z,24.34
2018-09-05T08:57:29.016Z,24.41
2018-09-05T08:59:59.395Z,24.68
2018-09-05T09:02:29.732Z,24.69
2018-09-05T09:05:00.070Z,24.81
2018-09-05T09:07:31.302Z,24.96
2018-09-05T09:10:01.743Z,25.31
2018-09-05T09:12:32.178Z,25.54
2018-09-05T09:15:02.448Z,25.53
2018-09-05T09:17:32.927Z,25.53
2018-09-05T09:20:03.175Z,25.48
2018-09-05T09:22:33.591Z,25.74
2018-09-05T09:25:03.976Z,26.05
2018-09-05T09:27:34.865Z,26.08
2018-09-05T09:30:05.347Z,26.15
2018-09-05T09:32:35.644Z,26.29
2018-09-05T09:35:05.917Z,26.72
2018-09-05T09:37:36.307Z,26.58
2018-09-05T09:40:06.891Z,26.69
2018-09-05T09:42:37.309Z,26.78
2018-09-05T09:45:07.594Z,26.87
2018-09-05T09:47:38.159Z,27.25
2018-09-05T09:50:08.371Z,27.62
2018-09-05T09:52:38.982Z,27.78
2018-09-05T09:55:09.678Z,28.15
2018-09-05T09:57:40.147Z,28.34
2018-09-05T10:00:12.392Z,28.26
2018-09-05T10:02:47.721Z,28.46
2018-09-05T10:05:23.097Z,28.89
2018-09-05T10:07:58.523Z,29.25
2018-09-05T10:17:40.579Z,29.44
2018-09-05T10:20:11.401Z,29.53
2018-09-05T10:22:42.117Z,29.49
2018-09-05T10:25:12.487Z,28.78
2018-09-05T10:27:43.803Z,29.05
2018-09-05T10:30:14.402Z,29.29
2018-09-05T10:32:44.683Z,29.73
2018-09-05T10:35:15.906Z,30.19
2018-09-05T10:37:52.896Z,30.05
2018-09-05T10:40:23.651Z,30.53
2018-09-05T10:42:53.888Z,30.48
2018-09-05T10:45:24.134Z,30.13
2018-09-05T10:47:54.441Z,30.18
2018-09-05T10:50:24.947Z,31.00
2018-09-05T10:52:55.199Z,31.46
2018-09-05T10:55:25.870Z,31.84
2018-09-05T10:57:56.335Z,32.29
2018-09-05T11:00:27.083Z,32.76
2018-09-05T11:02:57.388Z,33.08
2018-09-05T11:05:27.956Z,33.51
2018-09-05T11:07:58.636Z,33.77
2018-09-05T11:10:29.180Z,33.20
2018-09-05T11:12:59.718Z,33.57
2018-09-05T11:15:30.178Z,33.85
2018-09-05T11:18:00.664Z,33.42
2018-09-05T11:20:31.579Z,32.58
2018-09-05T11:23:02.171Z,32.70
2018-09-05T11:25:32.707Z,33.47
2018-09-05T11:28:03.180Z,34.31
2018-09-05T11:30:33.902Z,35.36
2018-09-05T11:33:04.246Z,35.58
2018-09-05T11:35:34.694Z,36.58
2018-09-05T11:38:05.103Z,37.08
2018-09-05T11:40:36.364Z,36.82
2018-09-05T11:43:06.836Z,36.96
2018-09-05T11:45:37.130Z,37.57
2018-09-05T11:48:07.670Z,38.16
2018-09-05T11:50:38.023Z,38.56
2018-09-05T11:53:08.472Z,38.61
2018-09-05T11:55:38.984Z,38.42
2018-09-05T11:58:09.550Z,38.31
2018-09-05T12:00:40.120Z,38.39
2018-09-05T12:03:10.499Z,38.03
2018-09-05T12:05:40.819Z,38.51
2018-09-05T12:08:11.260Z,38.81
2018-09-05T12:10:41.592Z,39.84
2018-09-05T12:13:12.110Z,40.90
2018-09-05T12:15:42.546Z,41.54
2018-09-05T12:18:13.060Z,43.98
2018-09-05T12:20:43.370Z,46.23
2018-09-05T12:23:13.926Z,46.40
2018-09-05T12:25:44.412Z,45.22
2018-09-05T12:28:14.945Z,42.14
2018-09-05T12:30:45.166Z,39.82
2018-09-05T12:33:15.567Z,38.36
2018-09-05T12:35:45.806Z,37.28
2018-09-05T12:38:16.260Z,36.47
2018-09-05T12:40:46.539Z,39.91
2018-09-05T12:43:16.935Z,44.24
2018-09-05T12:45:47.747Z,45.28
2018-09-05T12:48:18.150Z,42.85
2018-09-05T12:50:48.615Z,40.71
2018-09-05T12:53:18.807Z,42.93
2018-09-05T12:55:49.262Z,46.45
2018-09-05T12:58:19.669Z,49.03
2018-09-05T13:00:50.231Z,49.49
2018-09-05T13:03:20.667Z,46.39
2018-09-05T13:05:50.872Z,44.94
2018-09-05T13:08:21.202Z,45.62
2018-09-05T13:10:51.525Z,47.83
2018-09-05T13:13:21.961Z,47.19
2018-09-05T13:15:52.205Z,44.22
2018-09-05T13:18:22.585Z,41.85
2018-09-05T13:20:52.906Z,41.09
2018-09-05T13:23:23.461Z,43.38
2018-09-05T13:25:53.926Z,45.54
2018-09-05T13:28:24.202Z,46.80
2018-09-05T13:30:54.495Z,47.76
2018-09-05T13:33:25.090Z,48.39
2018-09-05T13:35:55.527Z,47.80
2018-09-05T13:38:25.872Z,48.37
2018-09-05T13:40:56.238Z,49.22
2018-09-05T13:43:26.563Z,50.45
2018-09-05T13:45:56.984Z,51.11
2018-09-05T13:48:27.183Z,51.34
2018-09-05T13:50:57.675Z,50.66
2018-09-05T13:53:28.224Z,50.74
2018-09-05T13:55:58.507Z,51.25
2018-09-05T13:58:29.468Z,52.18
2018-09-05T14:00:59.743Z,52.61
2018-09-05T14:03:36.489Z,52.35
2018-09-05T14:06:06.958Z,51.59
2018-09-05T14:08:37.390Z,51.85
2018-09-05T14:11:07.664Z,50.19
2018-09-05T14:13:38.183Z,51.44
2018-09-05T14:16:08.571Z,51.40
2018-09-05T14:18:39.152Z,50.98
2018-09-05T14:21:09.461Z,51.04
2018-09-05T14:23:40.026Z,50.98
2018-09-05T14:26:10.566Z,50.70
2018-09-05T14:28:40.963Z,50.89
2018-09-05T14:31:11.560Z,50.70
2018-09-05T14:33:42.002Z,49.90
2018-09-05T14:36:12.360Z,49.58
2018-09-05T14:38:42.913Z,48.51
2018-09-05T14:41:13.466Z,47.91
2018-09-05T14:43:43.796Z,46.50
2018-09-05T14:46:14.160Z,46.73
2018-09-05T14:48:44.651Z,46.19
2018-09-05T14:51:14.938Z,45.76
2018-09-05T14:53:45.247Z,44.97
2018-09-05T14:56:15.594Z,44.70
2018-09-05T14:58:46.055Z,44.80
2018-09-05T15:01:16.563Z,45.39
2018-09-05T15:03:46.739Z,45.34
2018-09-05T15:06:17.052Z,44.69
2018-09-05T15:08:47.671Z,44.71
2018-09-05T15:11:18.021Z,43.84
2018-09-05T15:13:48.432Z,42.64
2018-09-05T15:16:19.002Z,41.09
2018-09-05T15:18:49.280Z,39.84
2018-09-05T15:21:19.614Z,38.67
2018-09-05T15:23:50.036Z,37.24
2018-09-05T15:26:20.504Z,37.10
2018-09-05T15:28:51.056Z,36.81
2018-09-05T15:31:21.730Z,36.65
2018-09-05T15:33:52.249Z,35.77
2018-09-05T15:36:22.653Z,35.16
2018-09-05T15:38:53.130Z,34.51
2018-09-05T15:41:23.514Z,34.37
2018-09-05T15:43:54.170Z,34.69
2018-09-05T15:46:25.513Z,35.16
2018-09-05T15:48:55.729Z,35.54
2018-09-05T15:51:26.632Z,35.95
2018-09-05T15:53:57.249Z,36.04
2018-09-05T15:56:27.471Z,35.40
2018-09-05T15:58:57.850Z,34.85
2018-09-05T16:01:28.967Z,34.21
2018-09-05T16:03:59.296Z,33.57
2018-09-05T16:06:29.611Z,32.82
2018-09-05T16:09:00.771Z,32.23
2018-09-05T16:11:31.034Z,31.76
2018-09-05T16:14:01.613Z,31.66
2018-09-05T16:16:31.938Z,31.80
2018-09-05T16:19:02.253Z,31.48
2018-09-05T16:21:32.687Z,31.22
2018-09-05T16:24:10.243Z,31.04
2018-09-05T16:26:40.692Z,30.79
2018-09-05T16:29:11.047Z,30.58
2018-09-05T16:31:41.306Z,30.30
2018-09-05T16:34:11.824Z,30.06
2018-09-05T16:36:42.231Z,29.89
2018-09-05T16:39:13.264Z,29.73
2018-09-05T16:41:43.544Z,29.51
2018-09-05T16:44:14.062Z,29.25
2018-09-05T16:46:44.527Z,28.87
2018-09-05T16:49:14.810Z,28.81
2018-09-05T16:51:45.337Z,28.59
2018-09-05T16:54:15.832Z,28.39
2018-09-05T16:56:46.136Z,28.21
2018-09-05T16:59:16.328Z,28.13
2018-09-05T17:01:46.554Z,27.94
2018-09-05T17:04:16.882Z,27.87
2018-09-05T17:06:47.199Z,27.66
2018-09-05T17:09:17.688Z,27.51
2018-09-05T17:11:48.124Z,27.39
2018-09-05T17:14:18.317Z,27.28
2018-09-05T17:16:48.747Z,27.22
2018-09-05T17:19:19.103Z,27.07
2018-09-05T17:21:49.413Z,27.08
2018-09-05T17:24:19.940Z,26.92
2018-09-05T17:26:50.237Z,26.75
2018-09-05T17:29:20.638Z,26.79
2018-09-05T17:31:50.988Z,26.73
2018-09-05T17:34:21.527Z,26.66
2018-09-05T17:36:51.822Z,26.52
2018-09-05T17:39:22.273Z,26.46
2018-09-05T17:41:52.701Z,26.35
2018-09-05T17:44:23.164Z,26.22
2018-09-05T17:46:53.773Z,26.22
2018-09-05T17:49:24.404Z,26.08
2018-09-05T17:51:54.626Z,26.07
2018-09-05T17:54:25.007Z,26.17
2018-09-05T17:56:55.528Z,26.05
2018-09-05T17:59:25.970Z,26.21
2018-09-05T18:01:56.479Z,26.08
2018-09-05T18:04:27.117Z,26.03
2018-09-05T18:06:57.367Z,25.90
2018-09-05T18:09:27.720Z,25.81
2018-09-05T18:11:58.072Z,25.70
2018-09-05T18:14:28.363Z,25.72
2018-09-05T18:16:58.847Z,25.71
2018-09-05T18:19:29.291Z,25.61
2018-09-05T18:21:59.654Z,25.57
2018-09-05T18:24:29.985Z,25.57
2018-09-05T18:27:00.235Z,25.55
2018-09-05T18:29:30.718Z,25.51
2018-09-05T18:32:01.121Z,25.44
2018-09-05T18:34:31.424Z,25.37
2018-09-05T18:37:01.761Z,25.34
2018-09-05T18:39:32.174Z,25.26
2018-09-05T18:42:02.737Z,25.29
2018-09-05T18:44:32.945Z,25.24
2018-09-05T18:47:03.400Z,25.22
2018-09-05T18:49:33.904Z,25.18
2018-09-05T18:52:04.375Z,25.25
2018-09-05T18:54:34.742Z,25.11
2018-09-05T18:57:05.314Z,25.03
2018-09-05T18:59:35.854Z,25.01
2018-09-05T19:02:06.259Z,25.01
2018-09-05T19:04:36.983Z,25.01
2018-09-05T19:07:07.534Z,24.93
2018-09-05T19:09:37.918Z,24.89
2018-09-05T19:12:08.608Z,24.92
2018-09-05T19:14:38.994Z,24.92
2018-09-05T19:17:09.415Z,24.84
2018-09-05T19:19:39.867Z,24.82
2018-09-05T19:22:10.834Z,24.76
2018-09-05T19:24:41.151Z,24.69
2018-09-05T19:27:11.659Z,24.60
2018-09-05T19:29:41.986Z,24.51
2018-09-05T19:32:12.389Z,24.44
2018-09-05T19:34:43.051Z,24.37
2018-09-05T19:37:13.557Z,24.32
2018-09-05T19:39:44.037Z,24.27
2018-09-05T19:42:14.670Z,24.19
2018-09-05T19:44:45.088Z,24.10
2018-09-05T19:47:15.682Z,24.17
2018-09-05T19:49:45.861Z,24.06
2018-09-05T19:52:16.100Z,24.04
2018-09-05T19:54:47.017Z,24.08
2018-09-05T19:57:17.489Z,24.08
2018-09-05T19:59:48.259Z,24.15
2018-09-05T20:02:18.814Z,24.05
2018-09-05T20:04:49.375Z,23.97
2018-09-05T20:07:19.840Z,23.96
2018-09-05T20:09:50.156Z,23.95
2018-09-05T20:12:20.778Z,23.91
2018-09-05T20:14:51.438Z,23.84
2018-09-05T20:17:22.031Z,23.74
2018-09-05T20:19:52.933Z,23.72
2018-09-05T20:22:23.212Z,23.62
2018-09-05T20:24:53.754Z,23.59
2018-09-05T20:27:24.252Z,23.50
2018-09-05T20:29:54.566Z,23.43
2018-09-05T20:32:25.124Z,23.50
2018-09-05T20:34:55.795Z,23.43
2018-09-05T20:37:26.152Z,23.40
2018-09-05T20:39:56.637Z,23.34
2018-09-05T20:42:27.174Z,23.28
2018-09-05T20:44:57.679Z,23.21
2018-09-05T20:47:30.919Z,23.22
2018-09-05T20:50:01.262Z,23.09
2018-09-05T20:52:31.591Z,22.90
2018-09-05T20:55:01.930Z,22.88
2018-09-05T20:57:32.234Z,22.88
2018-09-05T21:00:02.838Z,22.82
2018-09-05T21:02:33.363Z,22.77
2018-09-05T21:05:03.787Z,22.67
2018-09-05T21:07:34.387Z,22.66
2018-09-05T21:10:04.774Z,22.57
2018-09-05T21:12:35.211Z,22.55
2018-09-05T21:15:05.828Z,22.45
2018-09-05T21:17:36.270Z,22.37
2018-09-05T21:20:06.583Z,22.23
2018-09-05T21:22:36.965Z,22.22
2018-09-05T21:25:07.590Z,22.08
2018-09-05T21:27:37.870Z,22.04
2018-09-05T21:30:08.223Z,22.03
2018-09-05T21:32:38.518Z,21.94
2018-09-05T21:35:08.846Z,21.84
2018-09-05T21:37:39.251Z,21.80
2018-09-05T21:40:09.731Z,21.72
2018-09-05T21:42:40.266Z,21.69
2018-09-05T21:45:10.547Z,21.62
2018-09-05T21:47:40.995Z,21.55
2018-09-05T21:50:11.409Z,21.47
2018-09-05T21:52:41.972Z,21.40
2018-09-05T21:55:12.150Z,21.35
2018-09-05T21:57:42.662Z,21.39
2018-09-05T22:00:13.055Z,21.33
2018-09-05T22:02:43.424Z,21.27
2018-09-05T22:05:13.902Z,21.28
2018-09-05T22:07:44.195Z,21.24
2018-09-05T22:10:14.791Z,21.27
2018-09-05T22:12:45.122Z,21.20
2018-09-05T22:15:15.346Z,21.11
2018-09-05T22:17:45.689Z,21.08
2018-09-05T22:20:16.049Z,21.03
2018-09-05T22:22:46.405Z,20.83
2018-09-05T22:25:16.772Z,20.80
2018-09-05T22:27:47.017Z,20.83
2018-09-05T22:30:17.392Z,20.83
2018-09-05T22:32:47.806Z,20.78
2018-09-05T22:35:18.110Z,20.72
2018-09-05T22:37:48.491Z,20.67
2018-09-05T22:40:19.149Z,20.58
2018-09-05T22:43:05.686Z,20.64
2018-09-05T22:45:52.468Z,20.56
2018-09-05T22:48:51.983Z,20.52
2018-09-05T22:53:55.802Z,20.47
2018-09-05T22:57:46.763Z,20.26
2018-09-05T23:02:00.452Z,20.19
2018-09-05T23:09:03.325Z,20.17
2018-09-05T23:11:54.099Z,19.86
2018-09-05T23:14:43.399Z,19.81
2018-09-05T23:17:31.995Z,19.76
2018-09-05T23:21:19.180Z,19.82
2018-09-05T23:23:59.850Z,19.77
2018-09-05T23:26:30.327Z,19.70
2018-09-05T23:29:00.499Z,19.64
2018-09-05T23:31:30.939Z,19.59
2018-09-05T23:34:01.359Z,19.55
2018-09-05T23:36:31.698Z,19.59
2018-09-05T23:39:09.623Z,19.59
2018-09-05T23:41:40.085Z,19.56
2018-09-05T23:44:10.592Z,19.57
2018-09-05T23:46:40.979Z,19.61
2018-09-05T23:49:11.429Z,19.49
2018-09-05T23:51:41.727Z,19.42
2018-09-05T23:54:12.057Z,19.44
2018-09-05T23:56:42.571Z,19.26
2018-09-05T23:59:13.143Z,19.19
